< < Back
Terminal Aerodrome Forecast


Current Version              Previous Versions:   1  2  3  4  5  6  7  8  9  

Terminal Aerodrome Forecast

676
FTUS42 KGSP 191300 AAA
TAFAND
TAF AMD
KAND 191322Z 1913/2012 24007KT P6SM VCSH FEW009 BKN080 BKN200
      TEMPO 1913/1914 BKN009 BKN080
     FM191900 25008KT P6SM VCTS BKN180CB
     FM192100 27007KT P6SM SCT060 BKN250 PROB30 1922/1924 4SM TSRA
      BKN040CB
     FM200100 26003KT P6SM SCT250
     FM200800 00000KT 5SM BR SCT240=



Latest METAR

477
SAUS70 KWBC 200400 RRC
MTRAND
METAR KAND 200356Z AUTO 26004KT 10SM CLR 24/20 A2992 RMK AO2 SLP121
T02390200


USA.gov is the U.S. government's official web portal to all federal, state and local government web resources and services.